sensor_id;sensor_type;location;lat;lon;timestamp;temperature;humidity
10231;DHT22;62604;49.432;8.680;2023-02-26T00:00:11;0.80;68.80
10231;DHT22;62604;49.432;8.680;2023-02-26T00:02:40;0.80;69.10
10231;DHT22;62604;49.432;8.680;2023-02-26T00:05:08;0.70;69.50
10231;DHT22;62604;49.432;8.680;2023-02-26T00:07:35;0.70;69.50
10231;DHT22;62604;49.432;8.680;2023-02-26T00:10:03;0.70;69.60
10231;DHT22;62604;49.432;8.680;2023-02-26T00:12:30;0.70;69.70
10231;DHT22;62604;49.432;8.680;2023-02-26T00:14:57;0.70;70.10
10231;DHT22;62604;49.432;8.680;2023-02-26T00:17:38;0.70;70.20
10231;DHT22;62604;49.432;8.680;2023-02-26T00:20:08;0.60;69.50
10231;DHT22;62604;49.432;8.680;2023-02-26T00:22:36;0.60;69.70
10231;DHT22;62604;49.432;8.680;2023-02-26T00:25:04;0.60;69.50
10231;DHT22;62604;49.432;8.680;2023-02-26T00:27:31;0.60;69.70
10231;DHT22;62604;49.432;8.680;2023-02-26T00:29:58;0.60;69.70
10231;DHT22;62604;49.432;8.680;2023-02-26T00:32:27;0.60;69.80
10231;DHT22;62604;49.432;8.680;2023-02-26T00:34:55;0.60;70.00
10231;DHT22;62604;49.432;8.680;2023-02-26T00:37:29;0.50;70.00
10231;DHT22;62604;49.432;8.680;2023-02-26T00:40:04;0.50;70.00
10231;DHT22;62604;49.432;8.680;2023-02-26T00:42:37;0.50;70.10
10231;DHT22;62604;49.432;8.680;2023-02-26T00:45:05;0.50;70.00
10231;DHT22;62604;49.432;8.680;2023-02-26T00:47:41;0.50;69.40
10231;DHT22;62604;49.432;8.680;2023-02-26T00:50:15;0.60;69.30
10231;DHT22;62604;49.432;8.680;2023-02-26T00:52:49;0.60;69.60
10231;DHT22;62604;49.432;8.680;2023-02-26T00:55:18;0.60;69.70
10231;DHT22;62604;49.432;8.680;2023-02-26T00:57:45;0.60;69.20
10231;DHT22;62604;49.432;8.680;2023-02-26T01:02:43;0.60;68.80
10231;DHT22;62604;49.432;8.680;2023-02-26T01:05:11;0.60;69.50
10231;DHT22;62604;49.432;8.680;2023-02-26T01:07:41;0.60;69.30
10231;DHT22;62604;49.432;8.680;2023-02-26T01:10:11;0.50;69.40
10231;DHT22;62604;49.432;8.680;2023-02-26T01:12:38;0.50;69.60
10231;DHT22;62604;49.432;8.680;2023-02-26T01:15:06;0.50;70.00
10231;DHT22;62604;49.432;8.680;2023-02-26T01:17:39;0.50;69.60
10231;DHT22;62604;49.432;8.680;2023-02-26T01:20:12;0.50;69.70
10231;DHT22;62604;49.432;8.680;2023-02-26T01:22:44;0.40;69.80
10231;DHT22;62604;49.432;8.680;2023-02-26T01:25:14;0.50;69.90
10231;DHT22;62604;49.432;8.680;2023-02-26T01:27:43;0.50;69.80
10231;DHT22;62604;49.432;8.680;2023-02-26T01:30:10;0.50;69.90
10231;DHT22;62604;49.432;8.680;2023-02-26T01:32:42;0.50;70.10
10231;DHT22;62604;49.432;8.680;2023-02-26T01:35:23;0.40;70.30
10231;DHT22;62604;49.432;8.680;2023-02-26T01:38:00;0.40;70.40
10231;DHT22;62604;49.432;8.680;2023-02-26T01:40:53;0.40;71.00
10231;DHT22;62604;49.432;8.680;2023-02-26T01:43:32;0.40;71.10
10231;DHT22;62604;49.432;8.680;2023-02-26T01:46:05;0.30;71.00
10231;DHT22;62604;49.432;8.680;2023-02-26T01:48:44;0.30;71.30
10231;DHT22;62604;49.432;8.680;2023-02-26T01:51:15;0.20;71.90
10231;DHT22;62604;49.432;8.680;2023-02-26T01:53:42;0.30;72.10
10231;DHT22;62604;49.432;8.680;2023-02-26T01:56:12;0.30;72.00
10231;DHT22;62604;49.432;8.680;2023-02-26T01:58:42;0.30;72.00
10231;DHT22;62604;49.432;8.680;2023-02-26T02:01:09;0.20;71.50
10231;DHT22;62604;49.432;8.680;2023-02-26T02:03:38;0.20;71.80
10231;DHT22;62604;49.432;8.680;2023-02-26T02:06:08;0.20;72.00
10231;DHT22;62604;49.432;8.680;2023-02-26T02:08:37;0.20;72.30
10231;DHT22;62604;49.432;8.680;2023-02-26T02:11:07;0.10;72.80
10231;DHT22;62604;49.432;8.680;2023-02-26T02:13:42;0.00;73.70
10231;DHT22;62604;49.432;8.680;2023-02-26T02:16:19;0.00;75.30
10231;DHT22;62604;49.432;8.680;2023-02-26T02:18:52;0.00;74.40
10231;DHT22;62604;49.432;8.680;2023-02-26T02:21:42;0.00;74.90
10231;DHT22;62604;49.432;8.680;2023-02-26T02:24:14;-0.10;75.90
10231;DHT22;62604;49.432;8.680;2023-02-26T02:27:06;-0.20;75.90
10231;DHT22;62604;49.432;8.680;2023-02-26T02:32:51;-0.10;75.20
10231;DHT22;62604;49.432;8.680;2023-02-26T02:35:24;-0.10;75.40
10231;DHT22;62604;49.432;8.680;2023-02-26T02:37:57;-0.10;75.90
10231;DHT22;62604;49.432;8.680;2023-02-26T02:40:30;-0.10;75.60
10231;DHT22;62604;49.432;8.680;2023-02-26T02:43:01;-0.10;75.50
10231;DHT22;62604;49.432;8.680;2023-02-26T02:45:34;-0.10;75.40
10231;DHT22;62604;49.432;8.680;2023-02-26T02:48:09;-0.10;75.50
10231;DHT22;62604;49.432;8.680;2023-02-26T02:50:42;-0.20;75.70
10231;DHT22;62604;49.432;8.680;2023-02-26T02:53:14;-0.20;77.60
10231;DHT22;62604;49.432;8.680;2023-02-26T02:55:47;-0.10;75.60
10231;DHT22;62604;49.432;8.680;2023-02-26T02:58:23;-0.10;76.30
10231;DHT22;62604;49.432;8.680;2023-02-26T03:00:55;-0.10;76.60
10231;DHT22;62604;49.432;8.680;2023-02-26T03:03:28;-0.20;76.70
10231;DHT22;62604;49.432;8.680;2023-02-26T03:05:57;-0.20;76.80
10231;DHT22;62604;49.432;8.680;2023-02-26T03:08:27;-0.20;78.10
10231;DHT22;62604;49.432;8.680;2023-02-26T03:10:54;-0.20;80.60
10231;DHT22;62604;49.432;8.680;2023-02-26T03:13:23;-0.30;79.00
10231;DHT22;62604;49.432;8.680;2023-02-26T03:15:58;-0.30;78.70
10231;DHT22;62604;49.432;8.680;2023-02-26T03:18:37;-0.20;78.40
10231;DHT22;62604;49.432;8.680;2023-02-26T03:21:11;-0.20;78.30
10231;DHT22;62604;49.432;8.680;2023-02-26T03:23:44;-0.30;78.90
10231;DHT22;62604;49.432;8.680;2023-02-26T03:26:23;-0.30;80.90
10231;DHT22;62604;49.432;8.680;2023-02-26T03:28:55;-0.30;79.80
10231;DHT22;62604;49.432;8.680;2023-02-26T03:31:28;-0.30;80.20
10231;DHT22;62604;49.432;8.680;2023-02-26T03:33:59;-0.40;81.40
10231;DHT22;62604;49.432;8.680;2023-02-26T03:36:30;-0.30;81.50
10231;DHT22;62604;49.432;8.680;2023-02-26T03:39:03;-0.30;81.50
10231;DHT22;62604;49.432;8.680;2023-02-26T03:41:33;-0.40;82.60
10231;DHT22;62604;49.432;8.680;2023-02-26T03:44:04;-0.30;81.50
10231;DHT22;62604;49.432;8.680;2023-02-26T03:46:38;-0.30;81.50
10231;DHT22;62604;49.432;8.680;2023-02-26T03:49:11;-0.40;81.10
10231;DHT22;62604;49.432;8.680;2023-02-26T03:51:40;-0.40;81.40
10231;DHT22;62604;49.432;8.680;2023-02-26T03:54:10;-0.40;83.00
10231;DHT22;62604;49.432;8.680;2023-02-26T03:56:42;-0.50;82.50
10231;DHT22;62604;49.432;8.680;2023-02-26T03:59:10;-0.40;85.60
10231;DHT22;62604;49.432;8.680;2023-02-26T04:01:41;-0.50;85.00
10231;DHT22;62604;49.432;8.680;2023-02-26T04:04:14;-0.50;84.60
10231;DHT22;62604;49.432;8.680;2023-02-26T04:06:43;-0.50;82.80
10231;DHT22;62604;49.432;8.680;2023-02-26T04:09:11;-0.50;82.80
10231;DHT22;62604;49.432;8.680;2023-02-26T04:11:38;-0.50;85.20
10231;DHT22;62604;49.432;8.680;2023-02-26T04:14:05;-0.50;84.90
10231;DHT22;62604;49.432;8.680;2023-02-26T04:16:32;-0.50;84.90
10231;DHT22;62604;49.432;8.680;2023-02-26T04:18:59;-0.50;85.30
10231;DHT22;62604;49.432;8.680;2023-02-26T04:21:27;-0.50;86.90
10231;DHT22;62604;49.432;8.680;2023-02-26T04:23:54;-0.60;85.60
10231;DHT22;62604;49.432;8.680;2023-02-26T04:26:21;-0.60;85.80
10231;DHT22;62604;49.432;8.680;2023-02-26T04:28:48;-0.60;86.30
10231;DHT22;62604;49.432;8.680;2023-02-26T04:31:15;-0.70;87.00
10231;DHT22;62604;49.432;8.680;2023-02-26T04:33:42;-0.80;88.30
10231;DHT22;62604;49.432;8.680;2023-02-26T04:36:09;-0.80;88.20
10231;DHT22;62604;49.432;8.680;2023-02-26T04:38:37;-0.80;90.90
10231;DHT22;62604;49.432;8.680;2023-02-26T04:41:05;-0.90;90.50
10231;DHT22;62604;49.432;8.680;2023-02-26T04:43:32;-0.90;91.40
10231;DHT22;62604;49.432;8.680;2023-02-26T04:45:59;-0.80;91.50
10231;DHT22;62604;49.432;8.680;2023-02-26T04:48:26;-0.90;91.00
10231;DHT22;62604;49.432;8.680;2023-02-26T04:50:53;-1.00;90.80
10231;DHT22;62604;49.432;8.680;2023-02-26T04:53:20;-1.00;91.40
10231;DHT22;62604;49.432;8.680;2023-02-26T04:55:48;-1.00;91.50
10231;DHT22;62604;49.432;8.680;2023-02-26T04:58:16;-1.00;91.30
10231;DHT22;62604;49.432;8.680;2023-02-26T05:00:42;-1.00;92.80
10231;DHT22;62604;49.432;8.680;2023-02-26T05:03:13;-1.00;94.10
10231;DHT22;62604;49.432;8.680;2023-02-26T05:05:40;-1.00;93.10
10231;DHT22;62604;49.432;8.680;2023-02-26T05:08:07;-0.90;91.20
10231;DHT22;62604;49.432;8.680;2023-02-26T05:10:34;-0.80;91.30
10231;DHT22;62604;49.432;8.680;2023-02-26T05:13:03;-0.90;90.40
10231;DHT22;62604;49.432;8.680;2023-02-26T05:15:30;-0.90;90.70
10231;DHT22;62604;49.432;8.680;2023-02-26T05:17:57;-0.90;90.80
10231;DHT22;62604;49.432;8.680;2023-02-26T05:20:24;-0.90;88.30
10231;DHT22;62604;49.432;8.680;2023-02-26T05:22:50;-0.80;86.60
10231;DHT22;62604;49.432;8.680;2023-02-26T05:25:18;-0.70;86.20
10231;DHT22;62604;49.432;8.680;2023-02-26T05:27:45;-0.70;85.90
10231;DHT22;62604;49.432;8.680;2023-02-26T05:30:15;-0.70;85.50
10231;DHT22;62604;49.432;8.680;2023-02-26T05:32:43;-0.70;84.80
10231;DHT22;62604;49.432;8.680;2023-02-26T05:35:10;-0.60;85.00
10231;DHT22;62604;49.432;8.680;2023-02-26T05:37:38;-0.60;84.30
10231;DHT22;62604;49.432;8.680;2023-02-26T05:40:07;-0.60;83.80
10231;DHT22;62604;49.432;8.680;2023-02-26T05:42:35;-0.50;84.00
10231;DHT22;62604;49.432;8.680;2023-02-26T05:45:02;-0.50;83.80
10231;DHT22;62604;49.432;8.680;2023-02-26T05:47:32;-0.50;84.30
10231;DHT22;62604;49.432;8.680;2023-02-26T05:49:59;-0.60;84.50
10231;DHT22;62604;49.432;8.680;2023-02-26T05:52:26;-0.60;85.00
10231;DHT22;62604;49.432;8.680;2023-02-26T05:54:53;-0.60;85.10
10231;DHT22;62604;49.432;8.680;2023-02-26T05:57:20;-0.60;84.90
10231;DHT22;62604;49.432;8.680;2023-02-26T05:59:47;-0.60;85.30
10231;DHT22;62604;49.432;8.680;2023-02-26T06:02:14;-0.60;85.50
10231;DHT22;62604;49.432;8.680;2023-02-26T06:04:43;-0.30;96.30
10231;DHT22;62604;49.432;8.680;2023-02-26T06:07:09;0.10;98.60
10231;DHT22;62604;49.432;8.680;2023-02-26T06:09:36;0.30;96.90
10231;DHT22;62604;49.432;8.680;2023-02-26T06:12:03;0.10;86.40
10231;DHT22;62604;49.432;8.680;2023-02-26T06:14:31;-0.10;85.80
10231;DHT22;62604;49.432;8.680;2023-02-26T06:16:58;-0.30;86.20
10231;DHT22;62604;49.432;8.680;2023-02-26T06:19:25;-0.40;86.50
10231;DHT22;62604;49.432;8.680;2023-02-26T06:21:53;-0.50;86.80
10231;DHT22;62604;49.432;8.680;2023-02-26T06:24:20;-0.60;88.20
10231;DHT22;62604;49.432;8.680;2023-02-26T06:26:47;-0.60;88.30
10231;DHT22;62604;49.432;8.680;2023-02-26T06:29:14;-0.60;88.40
10231;DHT22;62604;49.432;8.680;2023-02-26T06:31:42;-0.60;89.40
10231;DHT22;62604;49.432;8.680;2023-02-26T06:34:09;-0.60;88.40
10231;DHT22;62604;49.432;8.680;2023-02-26T06:36:36;-0.60;88.40
10231;DHT22;62604;49.432;8.680;2023-02-26T06:39:05;-0.50;89.00
10231;DHT22;62604;49.432;8.680;2023-02-26T06:41:32;-0.50;88.70
10231;DHT22;62604;49.432;8.680;2023-02-26T06:43:59;-0.40;90.10
10231;DHT22;62604;49.432;8.680;2023-02-26T06:46:26;-0.40;88.70
10231;DHT22;62604;49.432;8.680;2023-02-26T06:48:53;-0.30;90.00
10231;DHT22;62604;49.432;8.680;2023-02-26T06:51:20;-0.20;90.80
10231;DHT22;62604;49.432;8.680;2023-02-26T06:53:47;-0.20;90.10
10231;DHT22;62604;49.432;8.680;2023-02-26T06:56:15;-0.20;89.10
10231;DHT22;62604;49.432;8.680;2023-02-26T06:58:42;0.00;93.30
10231;DHT22;62604;49.432;8.680;2023-02-26T07:01:09;0.10;93.60
10231;DHT22;62604;49.432;8.680;2023-02-26T07:03:36;0.20;91.70
10231;DHT22;62604;49.432;8.680;2023-02-26T07:06:03;0.30;92.20
10231;DHT22;62604;49.432;8.680;2023-02-26T07:08:32;0.40;91.20
10231;DHT22;62604;49.432;8.680;2023-02-26T07:10:59;0.50;90.20
10231;DHT22;62604;49.432;8.680;2023-02-26T07:13:27;0.40;86.40
10231;DHT22;62604;49.432;8.680;2023-02-26T07:15:54;0.50;87.30
10231;DHT22;62604;49.432;8.680;2023-02-26T07:18:21;0.70;89.50
10231;DHT22;62604;49.432;8.680;2023-02-26T07:20:48;0.90;87.80
10231;DHT22;62604;49.432;8.680;2023-02-26T07:23:15;0.80;81.70
10231;DHT22;62604;49.432;8.680;2023-02-26T07:25:43;0.70;82.50
10231;DHT22;62604;49.432;8.680;2023-02-26T07:28:09;0.60;80.80
10231;DHT22;62604;49.432;8.680;2023-02-26T07:30:38;0.50;81.80
10231;DHT22;62604;49.432;8.680;2023-02-26T07:33:06;0.40;82.20
10231;DHT22;62604;49.432;8.680;2023-02-26T07:35:34;0.40;82.60
10231;DHT22;62604;49.432;8.680;2023-02-26T07:38:00;0.30;82.40
10231;DHT22;62604;49.432;8.680;2023-02-26T07:40:28;0.30;82.70
10231;DHT22;62604;49.432;8.680;2023-02-26T07:42:55;0.50;81.90
10231;DHT22;62604;49.432;8.680;2023-02-26T07:45:23;0.50;81.30
10231;DHT22;62604;49.432;8.680;2023-02-26T07:47:51;0.50;80.90
10231;DHT22;62604;49.432;8.680;2023-02-26T07:50:19;0.50;80.60
10231;DHT22;62604;49.432;8.680;2023-02-26T07:52:50;0.50;80.20
10231;DHT22;62604;49.432;8.680;2023-02-26T07:55:17;0.60;80.70
10231;DHT22;62604;49.432;8.680;2023-02-26T07:57:45;0.70;80.70
10231;DHT22;62604;49.432;8.680;2023-02-26T08:00:14;0.80;80.40
10231;DHT22;62604;49.432;8.680;2023-02-26T08:02:44;1.00;79.30
10231;DHT22;62604;49.432;8.680;2023-02-26T08:05:12;1.30;77.90
10231;DHT22;62604;49.432;8.680;2023-02-26T08:07:39;1.50;76.30
10231;DHT22;62604;49.432;8.680;2023-02-26T08:10:07;2.10;77.10
10231;DHT22;62604;49.432;8.680;2023-02-26T08:12:35;2.70;73.70
10231;DHT22;62604;49.432;8.680;2023-02-26T08:15:03;3.20;75.90
10231;DHT22;62604;49.432;8.680;2023-02-26T08:17:29;3.80;73.70
10231;DHT22;62604;49.432;8.680;2023-02-26T08:19:57;4.60;65.50
10231;DHT22;62604;49.432;8.680;2023-02-26T08:22:25;4.90;60.90
10231;DHT22;62604;49.432;8.680;2023-02-26T08:24:52;5.00;58.00
10231;DHT22;62604;49.432;8.680;2023-02-26T08:27:20;5.50;58.40
10231;DHT22;62604;49.432;8.680;2023-02-26T08:29:47;6.10;54.50
10231;DHT22;62604;49.432;8.680;2023-02-26T08:32:15;6.50;51.10
10231;DHT22;62604;49.432;8.680;2023-02-26T08:34:43;6.20;48.10
10231;DHT22;62604;49.432;8.680;2023-02-26T08:37:10;5.00;50.20
10231;DHT22;62604;49.432;8.680;2023-02-26T08:39:38;4.50;52.70
10231;DHT22;62604;49.432;8.680;2023-02-26T08:42:07;5.70;53.60
10231;DHT22;62604;49.432;8.680;2023-02-26T08:44:34;6.30;50.50
10231;DHT22;62604;49.432;8.680;2023-02-26T08:47:01;6.80;48.40
10231;DHT22;62604;49.432;8.680;2023-02-26T08:49:29;5.30;47.80
10231;DHT22;62604;49.432;8.680;2023-02-26T08:51:56;5.00;50.10
10231;DHT22;62604;49.432;8.680;2023-02-26T08:54:23;4.40;51.10
10231;DHT22;62604;49.432;8.680;2023-02-26T08:56:51;3.70;52.70
10231;DHT22;62604;49.432;8.680;2023-02-26T08:59:20;3.20;54.50
10231;DHT22;62604;49.432;8.680;2023-02-26T09:01:47;3.50;55.90
10231;DHT22;62604;49.432;8.680;2023-02-26T09:04:14;4.80;54.80
10231;DHT22;62604;49.432;8.680;2023-02-26T09:06:41;6.30;51.50
10231;DHT22;62604;49.432;8.680;2023-02-26T09:09:08;7.20;46.10
10231;DHT22;62604;49.432;8.680;2023-02-26T09:11:35;7.50;42.30
10231;DHT22;62604;49.432;8.680;2023-02-26T09:14:04;7.70;42.60
10231;DHT22;62604;49.432;8.680;2023-02-26T09:16:31;8.00;39.70
10231;DHT22;62604;49.432;8.680;2023-02-26T09:19:00;7.40;41.60
10231;DHT22;62604;49.432;8.680;2023-02-26T09:21:27;8.20;39.60
10231;DHT22;62604;49.432;8.680;2023-02-26T09:23:54;8.80;38.10
10231;DHT22;62604;49.432;8.680;2023-02-26T09:26:21;8.00;35.70
10231;DHT22;62604;49.432;8.680;2023-02-26T09:28:47;7.20;37.40
10231;DHT22;62604;49.432;8.680;2023-02-26T09:31:16;6.00;40.10
10231;DHT22;62604;49.432;8.680;2023-02-26T09:33:43;5.60;43.10
10231;DHT22;62604;49.432;8.680;2023-02-26T09:36:10;6.90;42.20
10231;DHT22;62604;49.432;8.680;2023-02-26T09:38:37;7.40;37.70
10231;DHT22;62604;49.432;8.680;2023-02-26T09:41:07;8.40;36.70
10231;DHT22;62604;49.432;8.680;2023-02-26T09:43:53;8.00;34.30
10231;DHT22;62604;49.432;8.680;2023-02-26T09:46:33;8.10;35.20
10231;DHT22;62604;49.432;8.680;2023-02-26T09:49:10;9.80;33.20
10231;DHT22;62604;49.432;8.680;2023-02-26T09:51:39;10.00;29.70
10231;DHT22;62604;49.432;8.680;2023-02-26T09:54:13;10.00;29.50
10231;DHT22;62604;49.432;8.680;2023-02-26T09:56:42;10.90;28.00
10231;DHT22;62604;49.432;8.680;2023-02-26T09:59:10;10.50;26.10
10231;DHT22;62604;49.432;8.680;2023-02-26T10:01:45;10.90;26.60
10231;DHT22;62604;49.432;8.680;2023-02-26T10:04:19;9.80;26.50
10231;DHT22;62604;49.432;8.680;2023-02-26T10:06:57;10.20;27.30
10231;DHT22;62604;49.432;8.680;2023-02-26T10:09:41;11.10;25.00
10231;DHT22;62604;49.432;8.680;2023-02-26T10:12:12;12.10;25.20
10231;DHT22;62604;49.432;8.680;2023-02-26T10:14:43;12.40;22.20
10231;DHT22;62604;49.432;8.680;2023-02-26T10:17:19;12.60;21.60
10231;DHT22;62604;49.432;8.680;2023-02-26T10:19:52;10.90;21.80
10231;DHT22;62604;49.432;8.680;2023-02-26T10:22:24;9.70;24.80
10231;DHT22;62604;49.432;8.680;2023-02-26T10:24:59;9.50;25.60
10231;DHT22;62604;49.432;8.680;2023-02-26T10:27:39;8.50;27.60
10231;DHT22;62604;49.432;8.680;2023-02-26T10:30:13;8.10;28.30
10231;DHT22;62604;49.432;8.680;2023-02-26T10:32:54;7.10;29.40
10231;DHT22;62604;49.432;8.680;2023-02-26T10:35:23;8.60;29.60
10231;DHT22;62604;49.432;8.680;2023-02-26T10:37:55;9.20;27.20
10231;DHT22;62604;49.432;8.680;2023-02-26T10:40:27;9.60;27.00
10231;DHT22;62604;49.432;8.680;2023-02-26T10:42:58;10.30;25.00
10231;DHT22;62604;49.432;8.680;2023-02-26T10:45:32;9.50;26.10
10231;DHT22;62604;49.432;8.680;2023-02-26T10:48:15;9.20;26.20
10231;DHT22;62604;49.432;8.680;2023-02-26T10:50:49;9.40;26.40
10231;DHT22;62604;49.432;8.680;2023-02-26T10:53:16;9.00;25.30
10231;DHT22;62604;49.432;8.680;2023-02-26T10:55:46;9.40;25.50
10231;DHT22;62604;49.432;8.680;2023-02-26T10:58:16;9.40;24.60
10231;DHT22;62604;49.432;8.680;2023-02-26T11:00:45;8.00;25.80
10231;DHT22;62604;49.432;8.680;2023-02-26T11:03:18;7.00;27.80
10231;DHT22;62604;49.432;8.680;2023-02-26T11:05:45;7.80;28.00
10231;DHT22;62604;49.432;8.680;2023-02-26T11:08:17;7.90;27.00
10231;DHT22;62604;49.432;8.680;2023-02-26T11:10:49;8.10;25.90
10231;DHT22;62604;49.432;8.680;2023-02-26T11:13:17;7.20;26.70
10231;DHT22;62604;49.432;8.680;2023-02-26T11:15:47;7.00;27.20
10231;DHT22;62604;49.432;8.680;2023-02-26T11:18:20;7.20;27.90
10231;DHT22;62604;49.432;8.680;2023-02-26T11:20:48;7.50;27.70
10231;DHT22;62604;49.432;8.680;2023-02-26T11:23:17;8.00;26.80
10231;DHT22;62604;49.432;8.680;2023-02-26T11:25:52;8.50;26.30
10231;DHT22;62604;49.432;8.680;2023-02-26T11:28:22;8.30;26.40
10231;DHT22;62604;49.432;8.680;2023-02-26T11:30:51;8.20;25.80
10231;DHT22;62604;49.432;8.680;2023-02-26T11:33:26;8.40;25.70
10231;DHT22;62604;49.432;8.680;2023-02-26T11:35:55;8.20;25.90
10231;DHT22;62604;49.432;8.680;2023-02-26T11:38:25;6.40;27.10
10231;DHT22;62604;49.432;8.680;2023-02-26T11:40:54;6.10;28.70
10231;DHT22;62604;49.432;8.680;2023-02-26T11:43:24;5.60;29.80
10231;DHT22;62604;49.432;8.680;2023-02-26T11:45:54;6.10;30.90
10231;DHT22;62604;49.432;8.680;2023-02-26T11:48:26;7.40;28.50
10231;DHT22;62604;49.432;8.680;2023-02-26T11:50:56;7.40;26.50
10231;DHT22;62604;49.432;8.680;2023-02-26T11:53:29;7.10;26.60
10231;DHT22;62604;49.432;8.680;2023-02-26T11:55:59;6.50;27.60
10231;DHT22;62604;49.432;8.680;2023-02-26T11:58:28;7.20;27.30
10231;DHT22;62604;49.432;8.680;2023-02-26T12:00:58;8.20;26.50
10231;DHT22;62604;49.432;8.680;2023-02-26T12:03:30;8.20;24.60
10231;DHT22;62604;49.432;8.680;2023-02-26T12:05:58;7.40;24.30
10231;DHT22;62604;49.432;8.680;2023-02-26T12:08:28;6.80;25.10
10231;DHT22;62604;49.432;8.680;2023-02-26T12:11:05;6.90;26.30
10231;DHT22;62604;49.432;8.680;2023-02-26T12:13:40;7.70;25.40
10231;DHT22;62604;49.432;8.680;2023-02-26T12:16:16;7.50;25.90
10231;DHT22;62604;49.432;8.680;2023-02-26T12:18:56;7.30;25.40
10231;DHT22;62604;49.432;8.680;2023-02-26T12:21:54;7.20;26.60
10231;DHT22;62604;49.432;8.680;2023-02-26T12:24:40;6.30;25.60
10231;DHT22;62604;49.432;8.680;2023-02-26T12:27:16;5.30;27.50
10231;DHT22;62604;49.432;8.680;2023-02-26T12:32:47;4.70;29.10
10231;DHT22;62604;49.432;8.680;2023-02-26T12:35:34;4.80;30.00
10231;DHT22;62604;49.432;8.680;2023-02-26T12:38:19;5.00;30.10
10231;DHT22;62604;49.432;8.680;2023-02-26T12:41:14;5.30;30.60
10231;DHT22;62604;49.432;8.680;2023-02-26T12:43:48;5.50;29.50
10231;DHT22;62604;49.432;8.680;2023-02-26T12:46:25;5.90;29.60
10231;DHT22;62604;49.432;8.680;2023-02-26T12:49:18;6.40;28.70
10231;DHT22;62604;49.432;8.680;2023-02-26T12:52:12;6.50;27.70
10231;DHT22;62604;49.432;8.680;2023-02-26T12:55:06;6.60;27.70
10231;DHT22;62604;49.432;8.680;2023-02-26T13:00:53;6.50;27.00
10231;DHT22;62604;49.432;8.680;2023-02-26T13:03:40;7.30;26.20
10231;DHT22;62604;49.432;8.680;2023-02-26T13:06:36;7.70;24.80
10231;DHT22;62604;49.432;8.680;2023-02-26T13:09:15;8.80;23.10
10231;DHT22;62604;49.432;8.680;2023-02-26T13:12:01;9.00;22.00
10231;DHT22;62604;49.432;8.680;2023-02-26T13:14:38;10.00;21.10
10231;DHT22;62604;49.432;8.680;2023-02-26T13:17:14;9.50;20.60
10231;DHT22;62604;49.432;8.680;2023-02-26T13:19:45;8.70;21.50
10231;DHT22;62604;49.432;8.680;2023-02-26T13:22:18;7.90;21.90
10231;DHT22;62604;49.432;8.680;2023-02-26T13:24:51;6.80;23.30
10231;DHT22;62604;49.432;8.680;2023-02-26T13:27:23;6.50;25.20
10231;DHT22;62604;49.432;8.680;2023-02-26T13:30:03;6.20;25.80
10231;DHT22;62604;49.432;8.680;2023-02-26T13:32:33;6.30;26.80
10231;DHT22;62604;49.432;8.680;2023-02-26T13:35:04;6.40;26.00
10231;DHT22;62604;49.432;8.680;2023-02-26T13:37:36;6.50;25.90
10231;DHT22;62604;49.432;8.680;2023-02-26T13:40:26;6.80;26.20
10231;DHT22;62604;49.432;8.680;2023-02-26T13:43:01;7.00;25.40
10231;DHT22;62604;49.432;8.680;2023-02-26T13:45:37;7.60;25.70
10231;DHT22;62604;49.432;8.680;2023-02-26T13:48:15;7.30;25.30
10231;DHT22;62604;49.432;8.680;2023-02-26T13:50:52;6.80;25.70
10231;DHT22;62604;49.432;8.680;2023-02-26T13:53:35;6.60;26.10
10231;DHT22;62604;49.432;8.680;2023-02-26T13:56:12;7.30;26.30
10231;DHT22;62604;49.432;8.680;2023-02-26T13:58:41;6.50;26.00
10231;DHT22;62604;49.432;8.680;2023-02-26T14:01:13;5.70;26.70
10231;DHT22;62604;49.432;8.680;2023-02-26T14:03:45;5.40;27.40
10231;DHT22;62604;49.432;8.680;2023-02-26T14:06:37;5.20;27.70
10231;DHT22;62604;49.432;8.680;2023-02-26T14:09:28;4.90;28.50
10231;DHT22;62604;49.432;8.680;2023-02-26T14:12:00;4.90;29.10
10231;DHT22;62604;49.432;8.680;2023-02-26T14:14:35;4.80;28.40
10231;DHT22;62604;49.432;8.680;2023-02-26T14:17:29;4.70;28.20
10231;DHT22;62604;49.432;8.680;2023-02-26T14:20:16;5.00;28.30
10231;DHT22;62604;49.432;8.680;2023-02-26T14:22:47;4.90;27.50
10231;DHT22;62604;49.432;8.680;2023-02-26T14:25:18;4.80;28.00
10231;DHT22;62604;49.432;8.680;2023-02-26T14:27:48;4.80;27.10
10231;DHT22;62604;49.432;8.680;2023-02-26T14:30:20;5.20;27.90
10231;DHT22;62604;49.432;8.680;2023-02-26T14:32:55;5.40;27.20
10231;DHT22;62604;49.432;8.680;2023-02-26T14:35:34;5.60;27.00
10231;DHT22;62604;49.432;8.680;2023-02-26T14:38:05;5.30;27.30
10231;DHT22;62604;49.432;8.680;2023-02-26T14:40:37;4.90;28.10
10231;DHT22;62604;49.432;8.680;2023-02-26T14:43:09;4.90;28.20
10231;DHT22;62604;49.432;8.680;2023-02-26T14:45:41;5.00;27.70
10231;DHT22;62604;49.432;8.680;2023-02-26T14:48:12;5.10;27.00
10231;DHT22;62604;49.432;8.680;2023-02-26T14:53:59;5.30;26.90
10231;DHT22;62604;49.432;8.680;2023-02-26T14:56:38;5.20;26.50
10231;DHT22;62604;49.432;8.680;2023-02-26T14:59:24;5.30;26.90
10231;DHT22;62604;49.432;8.680;2023-02-26T15:02:03;5.40;27.40
10231;DHT22;62604;49.432;8.680;2023-02-26T15:07:51;4.80;28.20
10231;DHT22;62604;49.432;8.680;2023-02-26T15:10:33;4.60;28.20
10231;DHT22;62604;49.432;8.680;2023-02-26T15:13:23;4.40;28.60
10231;DHT22;62604;49.432;8.680;2023-02-26T15:15:56;4.30;29.00
10231;DHT22;62604;49.432;8.680;2023-02-26T15:21:41;4.10;29.60
10231;DHT22;62604;49.432;8.680;2023-02-26T15:24:11;4.10;29.90
10231;DHT22;62604;49.432;8.680;2023-02-26T15:26:45;4.00;30.00
10231;DHT22;62604;49.432;8.680;2023-02-26T15:29:13;4.20;29.90
10231;DHT22;62604;49.432;8.680;2023-02-26T15:31:45;4.10;29.10
10231;DHT22;62604;49.432;8.680;2023-02-26T15:34:15;4.10;29.20
10231;DHT22;62604;49.432;8.680;2023-02-26T15:36:44;4.20;29.20
10231;DHT22;62604;49.432;8.680;2023-02-26T15:39:12;4.20;29.10
10231;DHT22;62604;49.432;8.680;2023-02-26T15:41:42;4.00;29.40
10231;DHT22;62604;49.432;8.680;2023-02-26T15:44:14;4.00;29.40
10231;DHT22;62604;49.432;8.680;2023-02-26T15:46:45;4.00;29.70
10231;DHT22;62604;49.432;8.680;2023-02-26T15:49:18;4.00;29.50
10231;DHT22;62604;49.432;8.680;2023-02-26T15:51:46;4.00;29.90
10231;DHT22;62604;49.432;8.680;2023-02-26T15:54:16;4.10;30.10
10231;DHT22;62604;49.432;8.680;2023-02-26T15:56:44;4.10;30.00
10231;DHT22;62604;49.432;8.680;2023-02-26T15:59:16;4.20;28.90
10231;DHT22;62604;49.432;8.680;2023-02-26T16:01:47;4.10;28.70
10231;DHT22;62604;49.432;8.680;2023-02-26T16:04:16;4.00;29.10
10231;DHT22;62604;49.432;8.680;2023-02-26T16:06:45;3.80;28.40
10231;DHT22;62604;49.432;8.680;2023-02-26T16:09:17;3.60;28.60
10231;DHT22;62604;49.432;8.680;2023-02-26T16:11:45;3.60;29.20
10231;DHT22;62604;49.432;8.680;2023-02-26T16:14:17;3.60;29.30
10231;DHT22;62604;49.432;8.680;2023-02-26T16:16:50;3.60;29.40
10231;DHT22;62604;49.432;8.680;2023-02-26T16:19:19;3.70;29.50
10231;DHT22;62604;49.432;8.680;2023-02-26T16:21:47;3.60;29.20
10231;DHT22;62604;49.432;8.680;2023-02-26T16:24:17;3.60;29.40
10231;DHT22;62604;49.432;8.680;2023-02-26T16:26:52;3.60;30.20
10231;DHT22;62604;49.432;8.680;2023-02-26T16:29:23;3.60;29.40